createdAt,value
2022-10-09T00:00:32.817Z,20.05
2022-10-09T00:01:32.807Z,20.11
2022-10-09T00:02:32.847Z,20.21
2022-10-09T00:03:32.773Z,20.13
2022-10-09T00:04:32.768Z,20.13
2022-10-09T00:05:32.824Z,20.17
2022-10-09T00:06:32.791Z,20.23
2022-10-09T00:07:32.757Z,20.19
2022-10-09T00:08:32.733Z,20.19
2022-10-09T00:09:32.706Z,20.15
2022-10-09T00:10:32.710Z,20.19
2022-10-09T00:11:32.682Z,20.21
2022-10-09T00:12:32.731Z,20.23
2022-10-09T00:13:32.669Z,20.21
2022-10-09T00:14:32.670Z,20.17
2022-10-09T00:15:32.656Z,20.23
2022-10-09T00:16:32.740Z,20.21
2022-10-09T00:17:32.660Z,20.21
2022-10-09T00:18:32.608Z,20.19
2022-10-09T00:19:32.589Z,20.25
2022-10-09T00:20:32.583Z,20.15
2022-10-09T00:21:32.570Z,20.15
2022-10-09T00:22:32.577Z,20.17
2022-10-09T00:23:32.561Z,20.15
2022-10-09T00:24:32.540Z,20.19
2022-10-09T00:25:32.517Z,20.19
2022-10-09T00:26:32.515Z,20.17
2022-10-09T00:27:32.504Z,20.23
2022-10-09T00:28:35.427Z,20.26
2022-10-09T00:29:33.476Z,20.21
2022-10-09T00:30:32.513Z,20.26
2022-10-09T00:31:32.459Z,20.28
2022-10-09T00:32:32.456Z,20.21
2022-10-09T00:33:32.447Z,20.26
2022-10-09T00:34:32.428Z,20.25
2022-10-09T00:35:32.409Z,20.23
2022-10-09T00:36:32.399Z,20.23
2022-10-09T00:37:32.387Z,20.21
2022-10-09T00:38:32.389Z,20.34
2022-10-09T00:39:32.370Z,20.13
2022-10-09T00:40:32.350Z,20.32
2022-10-09T00:41:32.336Z,20.26
2022-10-09T00:42:32.342Z,20.34
2022-10-09T00:43:32.318Z,20.50
2022-10-09T00:44:32.331Z,20.52
2022-10-09T00:45:32.302Z,20.58
2022-10-09T00:46:32.347Z,20.64
2022-10-09T00:47:32.279Z,20.70
2022-10-09T00:48:32.267Z,20.56
2022-10-09T00:49:32.273Z,20.79
2022-10-09T00:50:32.250Z,20.85
2022-10-09T00:51:32.230Z,20.87
2022-10-09T00:52:32.235Z,20.89
2022-10-09T00:53:32.207Z,20.77
2022-10-09T00:54:32.220Z,21.01
2022-10-09T00:55:32.185Z,20.99
2022-10-09T00:56:32.168Z,20.97
2022-10-09T00:57:32.159Z,21.14
2022-10-09T00:58:32.147Z,21.23
2022-10-09T00:59:32.152Z,21.23
2022-10-09T01:00:32.139Z,21.27
2022-10-09T01:01:32.165Z,21.38
2022-10-09T01:02:32.181Z,21.21
2022-10-09T01:03:32.089Z,21.36
2022-10-09T01:04:32.103Z,21.21
2022-10-09T01:05:32.071Z,21.31
2022-10-09T01:06:32.067Z,21.31
2022-10-09T01:07:32.049Z,21.60
2022-10-09T01:08:32.043Z,21.60
2022-10-09T01:09:32.019Z,21.64
2022-10-09T01:10:32.027Z,21.42
2022-10-09T01:11:32.011Z,21.62
2022-10-09T01:12:31.997Z,21.42
2022-10-09T01:13:31.981Z,21.44
2022-10-09T01:14:31.969Z,21.67
2022-10-09T01:15:32.019Z,21.64
2022-10-09T01:16:31.939Z,21.49
2022-10-09T01:17:31.939Z,21.73
2022-10-09T01:18:31.931Z,21.78
2022-10-09T01:19:31.918Z,21.82
2022-10-09T01:20:31.926Z,21.73
2022-10-09T01:21:31.892Z,21.51
2022-10-09T01:22:31.889Z,21.53
2022-10-09T01:23:31.878Z,21.62
2022-10-09T01:24:31.864Z,21.73
2022-10-09T01:25:31.869Z,21.67
2022-10-09T01:26:31.837Z,21.75
2022-10-09T01:27:31.816Z,21.47
2022-10-09T01:28:31.874Z,21.53
2022-10-09T01:29:31.808Z,21.47
2022-10-09T01:30:31.786Z,21.42
2022-10-09T01:31:31.850Z,21.62
2022-10-09T01:32:31.785Z,21.44
2022-10-09T01:33:31.749Z,21.75
2022-10-09T01:34:31.752Z,21.51
2022-10-09T01:35:31.735Z,21.38
2022-10-09T01:36:31.759Z,21.42
2022-10-09T01:37:31.741Z,21.64
2022-10-09T01:38:31.696Z,21.53
2022-10-09T01:39:31.699Z,21.82
2022-10-09T01:40:31.681Z,21.82
2022-10-09T01:41:31.668Z,21.47
2022-10-09T01:42:31.676Z,21.49
2022-10-09T01:43:31.643Z,21.75
2022-10-09T01:44:31.636Z,21.62
2022-10-09T01:45:31.619Z,21.69
2022-10-09T01:46:31.642Z,21.78
2022-10-09T01:47:31.616Z,21.82
2022-10-09T01:48:31.600Z,21.87
2022-10-09T01:49:31.581Z,21.73
2022-10-09T01:50:31.570Z,21.89
2022-10-09T01:51:31.557Z,21.91
2022-10-09T01:52:31.573Z,21.73
2022-10-09T01:53:31.532Z,21.75
2022-10-09T01:54:31.521Z,21.78
2022-10-09T01:55:31.514Z,21.91
2022-10-09T01:56:31.504Z,21.80
2022-10-09T01:57:31.499Z,21.69
2022-10-09T01:58:31.489Z,21.80
2022-10-09T01:59:31.459Z,21.69
2022-10-09T02:00:31.487Z,21.78
2022-10-09T02:01:31.482Z,21.87
2022-10-09T02:02:31.525Z,21.69
2022-10-09T02:03:31.421Z,21.94
2022-10-09T02:04:31.410Z,21.71
2022-10-09T02:05:31.399Z,21.91
2022-10-09T02:06:31.381Z,21.82
2022-10-09T02:07:31.385Z,21.78
2022-10-09T02:08:31.359Z,22.03
2022-10-09T02:09:31.349Z,21.78
2022-10-09T02:10:31.347Z,21.78
2022-10-09T02:11:31.330Z,21.89
2022-10-09T02:12:31.352Z,21.84
2022-10-09T02:13:31.318Z,21.98
2022-10-09T02:14:31.302Z,21.98
2022-10-09T02:15:31.326Z,21.96
2022-10-09T02:16:36.150Z,21.89
2022-10-09T02:17:32.257Z,22.05
2022-10-09T02:18:31.279Z,21.78
2022-10-09T02:19:31.234Z,21.80
2022-10-09T02:20:31.230Z,21.94
2022-10-09T02:21:31.212Z,21.78
2022-10-09T02:22:31.216Z,22.05
2022-10-09T02:23:31.202Z,21.96
2022-10-09T02:24:31.210Z,22.15
2022-10-09T02:25:31.168Z,21.96
2022-10-09T02:26:31.155Z,21.98
2022-10-09T02:27:31.148Z,22.03
2022-10-09T02:28:31.204Z,22.03
2022-10-09T02:29:31.142Z,22.08
2022-10-09T02:30:31.120Z,22.43
2022-10-09T02:31:31.148Z,22.45
2022-10-09T02:32:31.102Z,22.17
2022-10-09T02:33:31.080Z,22.15
2022-10-09T02:34:31.092Z,22.19
2022-10-09T02:35:31.061Z,22.48
2022-10-09T02:36:31.052Z,22.26
2022-10-09T02:37:31.039Z,22.50
2022-10-09T02:38:31.020Z,22.22
2022-10-09T02:39:31.018Z,22.33
2022-10-09T02:40:31.026Z,22.57
2022-10-09T02:41:30.999Z,22.52
2022-10-09T02:42:30.983Z,22.36
2022-10-09T02:43:30.961Z,22.38
2022-10-09T02:44:30.983Z,22.43
2022-10-09T02:45:30.943Z,22.57
2022-10-09T02:46:30.994Z,22.38
2022-10-09T02:47:30.931Z,22.40
2022-10-09T02:48:30.919Z,22.57
2022-10-09T02:49:30.925Z,22.60
2022-10-09T02:50:30.889Z,22.67
2022-10-09T02:51:30.881Z,22.60
2022-10-09T02:52:30.869Z,22.74
2022-10-09T02:53:30.863Z,22.69
2022-10-09T02:54:30.864Z,22.65
2022-10-09T02:55:30.838Z,22.69
2022-10-09T02:56:31.661Z,22.92
2022-10-09T02:57:30.812Z,22.89
2022-10-09T02:58:30.794Z,22.84
2022-10-09T02:59:30.809Z,22.69
2022-10-09T03:00:30.778Z,22.69
2022-10-09T03:01:30.800Z,22.79
2022-10-09T03:02:30.821Z,22.94
2022-10-09T03:03:30.746Z,22.69
2022-10-09T03:04:30.756Z,22.89
2022-10-09T03:05:30.726Z,22.74
2022-10-09T03:06:30.712Z,22.89
2022-10-09T03:07:30.698Z,22.79
2022-10-09T03:08:30.682Z,22.87
2022-10-09T03:09:33.694Z,22.72
2022-10-09T03:10:30.664Z,22.62
2022-10-09T03:11:30.657Z,22.43
2022-10-09T03:12:30.651Z,22.55
2022-10-09T03:13:30.630Z,22.45
2022-10-09T03:14:30.622Z,22.55
2022-10-09T03:15:30.630Z,22.74
2022-10-09T03:16:30.659Z,22.36
2022-10-09T03:17:30.593Z,22.52
2022-10-09T03:18:30.572Z,22.60
2022-10-09T03:19:30.580Z,22.67
2022-10-09T03:20:30.540Z,22.62
2022-10-09T03:21:30.540Z,22.26
2022-10-09T03:22:30.542Z,22.33
2022-10-09T03:23:30.520Z,22.22
2022-10-09T03:24:30.522Z,22.22
2022-10-09T03:25:30.501Z,22.57
2022-10-09T03:26:30.490Z,22.24
2022-10-09T03:27:30.480Z,22.50
2022-10-09T03:28:30.562Z,22.48
2022-10-09T03:29:30.450Z,22.40
2022-10-09T03:30:30.469Z,22.43
2022-10-09T03:31:51.095Z,22.22
2022-10-09T03:32:31.523Z,22.50
2022-10-09T03:33:30.409Z,22.28
2022-10-09T03:34:30.403Z,22.33
2022-10-09T03:35:30.391Z,22.43
2022-10-09T03:36:30.377Z,22.36
2022-10-09T03:37:30.361Z,22.55
2022-10-09T03:38:30.362Z,22.28
2022-10-09T03:39:30.356Z,22.28
2022-10-09T03:40:30.325Z,22.31
2022-10-09T03:41:30.312Z,22.67
2022-10-09T03:42:30.319Z,22.57
2022-10-09T03:43:30.291Z,22.40
2022-10-09T03:44:30.293Z,22.60
2022-10-09T03:45:31.261Z,22.38
2022-10-09T03:46:30.295Z,22.40
2022-10-09T03:47:30.252Z,22.45
2022-10-09T03:48:30.237Z,22.62
2022-10-09T03:49:30.252Z,22.43
2022-10-09T03:50:30.215Z,22.69
2022-10-09T03:51:30.202Z,22.45
2022-10-09T03:52:30.192Z,22.48
2022-10-09T03:53:30.182Z,22.62
2022-10-09T03:54:30.194Z,22.50
2022-10-09T03:55:30.162Z,22.52
2022-10-09T03:56:30.142Z,22.50
2022-10-09T03:57:30.133Z,22.52
2022-10-09T03:58:30.134Z,22.48
2022-10-09T03:59:30.133Z,22.36
2022-10-09T04:00:30.298Z,22.36
2022-10-09T04:01:30.095Z,22.62
2022-10-09T04:02:30.089Z,22.57
2022-10-09T04:03:30.073Z,22.38
2022-10-09T04:04:30.075Z,22.79
2022-10-09T04:05:30.053Z,22.43
2022-10-09T04:06:30.040Z,22.40
2022-10-09T04:07:30.032Z,22.45
2022-10-09T04:08:30.010Z,22.48
2022-10-09T04:09:30.025Z,22.60
2022-10-09T04:10:29.994Z,22.50
2022-10-09T04:11:29.983Z,22.38
2022-10-09T04:12:29.963Z,22.48
2022-10-09T04:13:29.953Z,22.62
2022-10-09T04:14:29.961Z,22.45
2022-10-09T04:15:29.934Z,22.48
2022-10-09T04:16:29.994Z,22.67
2022-10-09T04:17:29.913Z,22.60
2022-10-09T04:18:29.905Z,22.55
2022-10-09T04:19:29.905Z,22.57
2022-10-09T04:20:29.884Z,22.62
2022-10-09T04:21:29.872Z,22.48
2022-10-09T04:22:29.849Z,22.57
2022-10-09T04:23:29.847Z,22.43
2022-10-09T04:24:29.854Z,22.74
2022-10-09T04:25:29.824Z,22.67
2022-10-09T04:26:29.804Z,22.45
2022-10-09T04:27:29.799Z,22.72
2022-10-09T04:28:29.830Z,22.67
2022-10-09T04:29:29.773Z,22.43
2022-10-09T04:30:29.783Z,22.57
2022-10-09T04:31:29.807Z,22.62
2022-10-09T04:32:29.746Z,22.67
2022-10-09T04:33:29.727Z,22.45
2022-10-09T04:34:29.746Z,22.38
2022-10-09T04:35:29.721Z,22.36
2022-10-09T04:36:29.694Z,22.43
2022-10-09T04:37:29.685Z,22.72
2022-10-09T04:38:29.674Z,22.82
2022-10-09T04:39:29.696Z,22.57
2022-10-09T04:40:29.654Z,22.43
2022-10-09T04:41:31.716Z,22.45
2022-10-09T04:42:29.625Z,22.62
2022-10-09T04:43:29.626Z,22.82
2022-10-09T04:44:29.606Z,22.62
2022-10-09T04:45:29.655Z,22.60
2022-10-09T04:46:29.580Z,22.50
2022-10-09T04:47:29.578Z,22.62
2022-10-09T04:48:29.555Z,22.60
2022-10-09T04:49:29.565Z,22.43
2022-10-09T04:50:29.538Z,22.65
2022-10-09T04:51:29.535Z,22.67
2022-10-09T04:52:29.517Z,22.36
2022-10-09T04:53:29.505Z,22.57
2022-10-09T04:54:29.505Z,22.36
2022-10-09T04:55:29.477Z,22.60
2022-10-09T04:56:29.476Z,22.55
2022-10-09T04:57:29.460Z,22.52
2022-10-09T04:58:29.453Z,22.28
2022-10-09T04:59:29.438Z,22.33
2022-10-09T05:00:29.446Z,22.45
2022-10-09T05:01:32.044Z,22.45
2022-10-09T05:02:30.473Z,22.50
2022-10-09T05:03:29.396Z,22.12
2022-10-09T05:04:29.394Z,22.26
2022-10-09T05:05:29.372Z,22.52
2022-10-09T05:06:29.361Z,22.40
2022-10-09T05:07:29.355Z,22.22
2022-10-09T05:08:29.334Z,22.48
2022-10-09T05:09:29.333Z,22.36
2022-10-09T05:10:29.316Z,22.36
2022-10-09T05:11:29.304Z,22.19
2022-10-09T05:12:29.296Z,22.22
2022-10-09T05:13:29.272Z,22.15
2022-10-09T05:14:29.264Z,22.15
2022-10-09T05:15:29.271Z,22.43
2022-10-09T05:16:29.333Z,22.33
2022-10-09T05:17:29.276Z,22.17
2022-10-09T05:18:29.227Z,22.26
2022-10-09T05:19:29.241Z,22.45
2022-10-09T05:20:29.196Z,22.19
2022-10-09T05:21:29.198Z,22.10
2022-10-09T05:22:29.182Z,22.26
2022-10-09T05:23:29.166Z,22.43
2022-10-09T05:24:29.174Z,22.12
2022-10-09T05:25:29.148Z,22.19
2022-10-09T05:26:29.134Z,22.19
2022-10-09T05:27:29.129Z,22.40
2022-10-09T05:28:29.152Z,22.33
2022-10-09T05:29:29.100Z,22.15
2022-10-09T05:30:29.094Z,22.05
2022-10-09T05:31:29.285Z,22.05
2022-10-09T05:32:29.069Z,22.31
2022-10-09T05:33:29.056Z,22.05
2022-10-09T05:34:29.055Z,21.96
2022-10-09T05:35:29.025Z,22.22
2022-10-09T05:36:29.025Z,21.98
2022-10-09T05:37:29.007Z,22.19
2022-10-09T05:38:28.994Z,21.91
2022-10-09T05:39:29.012Z,22.22
2022-10-09T05:40:29.424Z,22.03
2022-10-09T05:41:28.971Z,21.87
2022-10-09T05:42:28.953Z,22.10
2022-10-09T05:43:28.954Z,22.03
2022-10-09T05:44:28.933Z,21.91
2022-10-09T05:45:28.985Z,22.05
2022-10-09T05:46:28.905Z,22.08
2022-10-09T05:47:28.905Z,21.89
2022-10-09T05:48:28.899Z,22.05
2022-10-09T05:49:28.897Z,22.08
2022-10-09T05:50:28.867Z,22.08
2022-10-09T05:51:28.847Z,22.10
2022-10-09T05:52:28.845Z,21.94
2022-10-09T05:53:28.834Z,21.96
2022-10-09T05:54:28.837Z,21.94
2022-10-09T05:55:28.813Z,22.00
2022-10-09T05:56:28.798Z,22.15
2022-10-09T05:57:28.787Z,21.94
2022-10-09T05:58:28.775Z,22.00
2022-10-09T05:59:28.775Z,21.84
2022-10-09T06:00:28.879Z,22.03
2022-10-09T06:01:28.809Z,22.03
2022-10-09T06:02:28.792Z,21.94
2022-10-09T06:03:28.713Z,22.12
2022-10-09T06:04:28.718Z,22.03
2022-10-09T06:05:28.696Z,21.98
2022-10-09T06:06:28.680Z,21.91
2022-10-09T06:07:28.674Z,21.75
2022-10-09T06:08:28.668Z,21.67
2022-10-09T06:09:28.667Z,21.96
2022-10-09T06:10:32.280Z,21.78
2022-10-09T06:11:28.659Z,21.94
2022-10-09T06:12:28.606Z,21.82
2022-10-09T06:13:28.607Z,21.60
2022-10-09T06:14:28.604Z,21.80
2022-10-09T06:15:28.585Z,21.91
2022-10-09T06:16:28.609Z,21.75
2022-10-09T06:17:28.559Z,21.82
2022-10-09T06:18:28.547Z,21.58
2022-10-09T06:19:28.536Z,21.89
2022-10-09T06:20:28.576Z,21.84
2022-10-09T06:21:28.518Z,21.78
2022-10-09T06:22:28.496Z,21.73
2022-10-09T06:23:28.497Z,21.73
2022-10-09T06:24:29.490Z,21.55
2022-10-09T06:25:28.476Z,21.78
2022-10-09T06:26:28.469Z,21.67
2022-10-09T06:27:28.453Z,21.73
2022-10-09T06:28:28.514Z,21.69
2022-10-09T06:29:28.428Z,21.64
2022-10-09T06:30:28.557Z,21.58
2022-10-09T06:31:28.455Z,21.47
2022-10-09T06:32:28.409Z,21.58
2022-10-09T06:33:28.377Z,21.73
2022-10-09T06:34:28.365Z,21.49
2022-10-09T06:35:28.365Z,21.47
2022-10-09T06:36:28.348Z,21.67
2022-10-09T06:37:28.357Z,21.67
2022-10-09T06:38:28.317Z,21.64
2022-10-09T06:39:28.313Z,21.71
2022-10-09T06:40:28.298Z,21.69
2022-10-09T06:41:28.303Z,21.44
2022-10-09T06:42:28.295Z,21.69
2022-10-09T06:43:28.278Z,21.53
2022-10-09T06:44:28.247Z,21.44
2022-10-09T06:45:28.249Z,21.58
2022-10-09T06:46:28.284Z,21.53
2022-10-09T06:47:28.243Z,21.62
2022-10-09T06:48:28.208Z,21.53
2022-10-09T06:49:28.202Z,21.51
2022-10-09T06:50:28.188Z,21.40
2022-10-09T06:51:28.180Z,21.33
2022-10-09T06:52:28.189Z,21.51
2022-10-09T06:53:28.157Z,21.25
2022-10-09T06:54:28.146Z,21.53
2022-10-09T06:55:28.901Z,21.55
2022-10-09T06:56:28.139Z,21.23
2022-10-09T06:57:28.110Z,21.47
2022-10-09T06:58:28.108Z,21.47
2022-10-09T06:59:28.094Z,21.16
2022-10-09T07:00:29.043Z,21.31
2022-10-09T07:01:28.137Z,21.27
2022-10-09T07:02:28.070Z,21.44
2022-10-09T07:03:28.047Z,21.14
2022-10-09T07:04:28.048Z,21.29
2022-10-09T07:05:28.028Z,21.18
2022-10-09T07:06:28.016Z,21.27
2022-10-09T07:07:27.995Z,21.16
2022-10-09T07:08:27.994Z,21.25
2022-10-09T07:09:27.989Z,21.12
2022-10-09T07:10:28.061Z,21.12
2022-10-09T07:11:27.951Z,21.21
2022-10-09T07:12:27.946Z,21.04
2022-10-09T07:13:27.936Z,21.12
2022-10-09T07:14:27.942Z,20.97
2022-10-09T07:15:27.942Z,21.04
2022-10-09T07:16:27.947Z,20.95
2022-10-09T07:17:27.889Z,20.93
2022-10-09T07:18:27.875Z,21.01
2022-10-09T07:19:27.868Z,20.95
2022-10-09T07:20:27.868Z,20.89
2022-10-09T07:21:27.892Z,20.95
2022-10-09T07:22:27.841Z,20.99
2022-10-09T07:23:27.823Z,20.95
2022-10-09T07:24:27.815Z,20.85
2022-10-09T07:25:27.797Z,20.97
2022-10-09T07:26:27.809Z,20.93
2022-10-09T07:27:27.767Z,20.85
2022-10-09T07:28:27.803Z,20.89
2022-10-09T07:29:27.736Z,20.87
2022-10-09T07:30:27.763Z,20.83
2022-10-09T07:31:27.772Z,20.85
2022-10-09T07:32:27.739Z,20.77
2022-10-09T07:33:27.708Z,20.89
2022-10-09T07:34:27.700Z,20.91
2022-10-09T07:35:27.671Z,20.95
2022-10-09T07:36:27.679Z,20.89
2022-10-09T07:37:27.691Z,20.91
2022-10-09T07:38:27.664Z,20.89
2022-10-09T07:39:27.628Z,20.87
2022-10-09T07:40:27.625Z,20.85
2022-10-09T07:41:27.620Z,20.85
2022-10-09T07:42:27.622Z,20.87
2022-10-09T07:43:27.595Z,20.87
2022-10-09T07:44:27.602Z,20.87
2022-10-09T07:45:27.570Z,20.93
2022-10-09T07:46:32.207Z,20.81
2022-10-09T07:47:28.559Z,20.77
2022-10-09T07:48:27.540Z,20.75
2022-10-09T07:49:27.518Z,20.81
2022-10-09T07:50:27.511Z,20.75
2022-10-09T07:51:27.502Z,20.87
2022-10-09T07:52:27.482Z,20.91
2022-10-09T07:53:27.490Z,20.81
2022-10-09T07:54:27.460Z,20.75
2022-10-09T07:55:27.445Z,20.73
2022-10-09T07:56:27.442Z,20.83
2022-10-09T07:57:27.431Z,20.77
2022-10-09T07:58:27.440Z,20.75
2022-10-09T07:59:27.419Z,20.68
2022-10-09T08:00:27.405Z,20.75
2022-10-09T08:01:27.414Z,20.68
2022-10-09T08:02:27.446Z,20.66
2022-10-09T08:03:27.360Z,20.58
2022-10-09T08:04:27.377Z,20.70
2022-10-09T08:05:27.331Z,20.66
2022-10-09T08:06:27.335Z,20.62
2022-10-09T08:07:31.379Z,20.64
2022-10-09T08:08:28.303Z,20.68
2022-10-09T08:09:27.331Z,20.66
2022-10-09T08:10:27.288Z,20.64
2022-10-09T08:11:27.297Z,20.66
2022-10-09T08:12:27.278Z,20.68
2022-10-09T08:13:27.255Z,20.60
2022-10-09T08:14:27.252Z,20.70
2022-10-09T08:15:27.300Z,20.66
2022-10-09T08:16:27.210Z,20.70
2022-10-09T08:17:27.192Z,20.66
2022-10-09T08:18:27.190Z,20.68
2022-10-09T08:19:27.168Z,20.60
2022-10-09T08:20:27.195Z,20.73
2022-10-09T08:21:27.149Z,20.68
2022-10-09T08:22:27.152Z,20.77
2022-10-09T08:23:27.132Z,20.73
2022-10-09T08:24:27.121Z,20.68
2022-10-09T08:25:27.130Z,20.79
2022-10-09T08:26:27.104Z,20.81
2022-10-09T08:27:27.087Z,20.83
2022-10-09T08:28:27.117Z,20.83
2022-10-09T08:29:27.065Z,20.97
2022-10-09T08:30:27.051Z,21.14
2022-10-09T08:31:27.205Z,21.29
2022-10-09T08:32:27.040Z,21.60
2022-10-09T08:33:27.021Z,21.89
2022-10-09T08:34:27.002Z,22.22
2022-10-09T08:35:29.896Z,22.52
2022-10-09T08:36:27.998Z,22.87
2022-10-09T08:37:26.979Z,23.20
2022-10-09T08:38:45.958Z,23.60
2022-10-09T08:39:27.951Z,24.04
2022-10-09T08:40:26.936Z,24.66
2022-10-09T08:41:26.942Z,25.13
2022-10-09T08:42:26.933Z,25.80
2022-10-09T08:43:26.918Z,26.26
2022-10-09T08:44:26.894Z,26.59
2022-10-09T08:45:26.879Z,27.23
2022-10-09T08:46:26.900Z,27.92
2022-10-09T08:47:26.873Z,28.29
2022-10-09T08:48:26.844Z,28.68
2022-10-09T08:49:26.824Z,29.04
2022-10-09T08:50:26.829Z,29.75
2022-10-09T08:51:26.814Z,29.84
2022-10-09T08:52:26.829Z,30.44
2022-10-09T08:53:26.790Z,30.60
2022-10-09T08:54:26.773Z,30.91
2022-10-09T08:55:26.773Z,31.37
2022-10-09T08:56:26.761Z,31.78
2022-10-09T08:57:26.759Z,32.04
2022-10-09T08:58:26.733Z,32.31
2022-10-09T08:59:26.719Z,32.44
2022-10-09T09:00:26.712Z,32.49
2022-10-09T09:01:26.730Z,32.64
2022-10-09T09:02:26.747Z,32.67
2022-10-09T09:03:26.693Z,32.59
2022-10-09T09:04:26.665Z,32.87
2022-10-09T09:05:26.644Z,32.97
2022-10-09T09:06:26.655Z,33.18
2022-10-09T09:07:26.648Z,33.55
2022-10-09T09:08:26.667Z,33.74
2022-10-09T09:09:26.610Z,33.69
2022-10-09T09:10:26.600Z,33.71
2022-10-09T09:11:26.574Z,33.79
2022-10-09T09:12:26.581Z,33.71
2022-10-09T09:13:26.580Z,33.69
2022-10-09T09:14:26.552Z,34.49
2022-10-09T09:15:26.582Z,35.44
2022-10-09T09:16:26.596Z,36.40
2022-10-09T09:17:26.523Z,36.97
2022-10-09T09:18:26.526Z,37.30
2022-10-09T09:19:26.491Z,37.56
2022-10-09T09:20:26.480Z,37.56
2022-10-09T09:21:26.471Z,37.63
2022-10-09T09:22:26.471Z,37.63
2022-10-09T09:23:26.476Z,37.43
2022-10-09T09:24:26.434Z,37.40
2022-10-09T09:25:26.428Z,37.77
2022-10-09T09:26:26.420Z,38.25
2022-10-09T09:27:26.403Z,38.63
2022-10-09T09:28:26.473Z,38.96
2022-10-09T09:29:26.397Z,39.06
2022-10-09T09:30:26.365Z,39.03
2022-10-09T09:31:26.436Z,39.51
2022-10-09T09:32:26.346Z,39.88
2022-10-09T09:33:26.349Z,39.84
2022-10-09T09:34:26.348Z,39.73
2022-10-09T09:35:26.311Z,39.88
2022-10-09T09:36:26.296Z,40.11
2022-10-09T09:37:26.292Z,39.77
2022-10-09T09:38:26.296Z,39.36
2022-10-09T09:40:46.782Z,39.43
2022-10-09T09:41:27.245Z,39.14
2022-10-09T09:42:26.233Z,39.10
2022-10-09T09:43:26.218Z,38.67
2022-10-09T09:44:26.207Z,38.28
2022-10-09T09:45:26.207Z,37.80
2022-10-09T09:46:26.253Z,37.53
2022-10-09T09:48:17.488Z,37.60
2022-10-09T09:49:17.466Z,36.84
2022-10-09T09:50:42.370Z,36.71
2022-10-09T09:51:33.655Z,36.97
2022-10-09T09:52:18.449Z,37.13
2022-10-09T09:53:17.417Z,37.33
2022-10-09T09:54:17.415Z,37.37
2022-10-09T09:55:17.435Z,37.73
2022-10-09T09:56:17.395Z,37.97
2022-10-09T09:57:21.815Z,38.39
2022-10-09T09:58:17.380Z,38.85
2022-10-09T09:59:17.350Z,38.42
2022-10-09T10:00:17.362Z,38.32
2022-10-09T10:01:17.367Z,38.56
2022-10-09T10:02:17.420Z,39.25
2022-10-09T10:03:17.306Z,40.42
2022-10-09T10:04:17.297Z,41.62
2022-10-09T10:05:17.295Z,42.41
2022-10-09T10:06:17.308Z,42.97
2022-10-09T10:07:17.259Z,44.06
2022-10-09T10:08:17.253Z,44.38
2022-10-09T10:09:17.253Z,43.06
2022-10-09T10:10:21.137Z,42.03
2022-10-09T10:11:18.222Z,41.29
2022-10-09T10:12:17.210Z,41.05
2022-10-09T10:13:17.221Z,40.22
2022-10-09T10:14:17.190Z,39.21
2022-10-09T10:15:17.177Z,38.49
2022-10-09T10:16:17.182Z,37.27
2022-10-09T10:17:17.147Z,37.77
2022-10-09T10:18:17.158Z,37.17
2022-10-09T10:19:17.131Z,36.43
2022-10-09T10:20:17.119Z,36.30
2022-10-09T10:21:17.099Z,36.24
2022-10-09T10:22:17.100Z,37.00
2022-10-09T10:23:17.108Z,36.84
2022-10-09T10:24:17.069Z,36.08
2022-10-09T10:25:17.058Z,35.99
2022-10-09T10:26:17.038Z,36.27
2022-10-09T10:27:17.037Z,36.36
2022-10-09T10:28:17.063Z,36.65
2022-10-09T10:29:17.017Z,36.11
2022-10-09T10:30:17.000Z,36.97
2022-10-09T10:31:17.043Z,37.83
2022-10-09T10:32:16.980Z,38.56
2022-10-09T10:33:16.968Z,39.21
2022-10-09T10:34:16.954Z,38.92
2022-10-09T10:35:16.953Z,39.58
2022-10-09T10:36:16.932Z,40.53
2022-10-09T10:37:16.911Z,41.37
2022-10-09T10:38:16.900Z,41.45
2022-10-09T10:39:16.903Z,41.33
2022-10-09T10:40:16.885Z,41.99
2022-10-09T10:41:16.890Z,42.41
2022-10-09T10:42:16.859Z,42.58
2022-10-09T10:43:16.867Z,43.02
2022-10-09T10:44:16.845Z,43.20
2022-10-09T10:45:16.825Z,45.19
2022-10-09T10:46:16.829Z,46.70
2022-10-09T10:47:16.834Z,47.54
2022-10-09T10:48:16.796Z,47.30
2022-10-09T10:49:16.778Z,46.54
2022-10-09T10:50:16.835Z,46.18
2022-10-09T10:51:16.753Z,46.59
2022-10-09T10:52:16.762Z,46.39
2022-10-09T10:53:16.736Z,47.41
2022-10-09T10:54:16.720Z,47.92
2022-10-09T10:55:16.711Z,49.91
2022-10-09T10:56:16.690Z,54.72
2022-10-09T10:57:16.683Z,58.73
2022-10-09T10:58:16.720Z,60.64
2022-10-09T10:59:16.661Z,63.53
2022-10-09T11:00:16.717Z,65.97
2022-10-09T11:01:16.759Z,68.55
2022-10-09T11:02:16.622Z,74.57
2022-10-09T11:03:16.685Z,79.21
2022-10-09T11:04:16.601Z,82.72
2022-10-09T11:05:16.593Z,84.46
2022-10-09T11:06:16.583Z,83.38
2022-10-09T11:07:16.571Z,82.72
2022-10-09T11:08:16.574Z,84.81
2022-10-09T11:09:16.549Z,89.12
2022-10-09T11:10:16.601Z,91.35
2022-10-09T11:11:16.522Z,94.21
2022-10-09T11:12:30.149Z,94.24
2022-10-09T11:13:17.515Z,92.35
2022-10-09T11:14:20.071Z,89.03
2022-10-09T11:15:16.480Z,86.55
2022-10-09T11:16:16.533Z,85.06
2022-10-09T11:17:16.446Z,86.11
2022-10-09T11:18:16.443Z,89.79
2022-10-09T11:19:16.442Z,95.85
2022-10-09T11:20:16.527Z,103.40
2022-10-09T11:21:16.420Z,112.08
2022-10-09T11:22:16.385Z,121.30
2022-10-09T11:23:16.362Z,129.83
2022-10-09T11:24:16.384Z,136.13
2022-10-09T11:25:16.365Z,139.52
2022-10-09T11:26:16.343Z,141.76
2022-10-09T11:27:16.335Z,148.52
2022-10-09T11:28:16.361Z,153.82
2022-10-09T11:29:16.306Z,149.05
2022-10-09T11:30:16.428Z,150.51
2022-10-09T11:31:16.311Z,153.26
2022-10-09T11:32:16.291Z,157.71
2022-10-09T11:33:16.259Z,160.88
2022-10-09T11:34:16.256Z,164.02
2022-10-09T11:35:16.256Z,161.50
2022-10-09T11:36:16.228Z,160.73
2022-10-09T11:37:16.211Z,164.51
2022-10-09T11:38:16.206Z,168.97
2022-10-09T11:39:16.197Z,172.79
2022-10-09T11:40:16.213Z,175.68
2022-10-09T11:41:16.159Z,179.24
2022-10-09T11:42:16.153Z,182.35
2022-10-09T11:43:16.138Z,181.56
2022-10-09T11:44:16.143Z,180.20
2022-10-09T11:45:16.127Z,183.94
2022-10-09T11:46:16.177Z,186.39
2022-10-09T11:47:16.107Z,188.95
2022-10-09T11:48:16.087Z,191.35
2022-10-09T11:49:16.076Z,195.20
2022-10-09T11:50:16.094Z,195.20
2022-10-09T11:51:16.058Z,187.98
2022-10-09T11:52:16.056Z,184.96
2022-10-09T11:53:16.017Z,186.39
2022-10-09T11:54:16.013Z,191.57
2022-10-09T11:55:16.026Z,197.06
2022-10-09T11:56:15.995Z,202.37
2022-10-09T11:57:15.978Z,201.75
2022-10-09T11:58:15.972Z,201.62
2022-10-09T11:59:15.960Z,204.75
2022-10-09T12:00:15.960Z,209.81
2022-10-09T12:01:15.959Z,217.12
2022-10-09T12:02:15.953Z,220.89
2022-10-09T12:03:15.923Z,223.13
2022-10-09T12:04:20.844Z,223.73
2022-10-09T12:05:16.899Z,224.19
2022-10-09T12:06:15.870Z,225.41
2022-10-09T12:07:15.852Z,226.65
2022-10-09T12:08:18.508Z,232.54
2022-10-09T12:09:15.841Z,237.39
2022-10-09T12:10:15.854Z,240.32
2022-10-09T12:11:15.809Z,243.69
2022-10-09T12:12:15.807Z,246.04
2022-10-09T12:13:15.791Z,246.41
2022-10-09T12:14:19.573Z,244.59
2022-10-09T12:15:15.817Z,243.51
2022-10-09T12:16:15.792Z,243.15
2022-10-09T12:17:15.742Z,242.26
2022-10-09T12:18:15.745Z,243.33
2022-10-09T12:19:15.725Z,243.51
2022-10-09T12:20:15.714Z,243.15
2022-10-09T12:21:15.703Z,236.88
2022-10-09T12:22:15.708Z,234.86
2022-10-09T12:23:27.513Z,235.19
2022-10-09T12:24:16.674Z,233.53
2022-10-09T12:25:15.653Z,228.05
2022-10-09T12:26:15.651Z,218.84
2022-10-09T12:27:15.638Z,212.65
2022-10-09T12:28:15.666Z,205.00
2022-10-09T12:29:15.610Z,206.15
2022-10-09T12:30:15.593Z,209.15
2022-10-09T12:31:15.644Z,213.47
2022-10-09T12:32:15.572Z,216.83
2022-10-09T12:33:15.552Z,214.72
2022-10-09T12:34:15.554Z,208.62
2022-10-09T12:35:15.539Z,206.28
2022-10-09T12:36:15.544Z,205.00
2022-10-09T12:37:15.524Z,207.71
2022-10-09T12:38:15.513Z,216.55
2022-10-09T12:39:15.487Z,219.71
2022-10-09T12:40:15.486Z,221.18
2022-10-09T12:41:20.066Z,219.42
2022-10-09T12:42:15.490Z,215.84
2022-10-09T12:43:15.453Z,215.84
2022-10-09T12:44:15.436Z,214.02
2022-10-09T12:45:15.423Z,215.00
2022-10-09T12:46:15.474Z,222.38
2022-10-09T12:47:15.413Z,229.48
2022-10-09T12:48:15.385Z,232.05
2022-10-09T12:49:15.374Z,236.88
2022-10-09T12:50:15.357Z,238.24
2022-10-09T12:51:15.371Z,235.69